createdAt,value
2022-11-23T00:00:32.809Z,297.03
2022-11-23T00:01:32.955Z,297.57
2022-11-23T00:02:33.232Z,298.65
2022-11-23T00:03:33.230Z,298.11
2022-11-23T00:04:33.326Z,295.96
2022-11-23T00:05:33.477Z,297.03
2022-11-23T00:06:33.618Z,295.43
2022-11-23T00:07:33.863Z,294.37
2022-11-23T00:08:33.893Z,293.84
2022-11-23T00:09:34.274Z,293.84
2022-11-23T00:10:34.155Z,292.01
2022-11-23T00:11:34.283Z,294.37
2022-11-23T00:12:34.544Z,292.53
2022-11-23T00:13:34.534Z,292.27
2022-11-23T00:14:34.704Z,290.97
2022-11-23T00:15:34.803Z,293.31
2022-11-23T00:16:34.918Z,293.05
2022-11-23T00:17:35.059Z,289.43
2022-11-23T00:18:35.248Z,289.69
2022-11-23T00:19:35.316Z,287.40
2022-11-23T00:20:35.442Z,286.65
2022-11-23T00:21:35.590Z,285.90
2022-11-23T00:22:35.767Z,285.90
2022-11-23T00:23:35.890Z,285.16
2022-11-23T00:24:36.058Z,283.19
2022-11-23T00:25:36.121Z,281.25
2022-11-23T00:26:36.259Z,282.21
2022-11-23T00:27:36.421Z,279.57
2022-11-23T00:28:36.530Z,279.09
2022-11-23T00:29:36.657Z,279.33
2022-11-23T00:30:36.793Z,278.38
2022-11-23T00:31:36.921Z,279.57
2022-11-23T00:32:37.049Z,281.49
2022-11-23T00:33:37.232Z,281.25
2022-11-23T00:34:37.385Z,281.97
2022-11-23T00:35:37.461Z,282.46
2022-11-23T00:36:37.602Z,283.19
2022-11-23T00:37:37.737Z,284.42
2022-11-23T00:38:37.929Z,282.46
2022-11-23T00:39:38.007Z,284.17
2022-11-23T00:40:38.177Z,284.17
2022-11-23T00:41:38.299Z,282.70
2022-11-23T00:42:38.493Z,281.97
2022-11-23T00:43:38.557Z,282.94
2022-11-23T00:44:38.672Z,284.66
2022-11-23T00:45:38.802Z,285.40
2022-11-23T00:46:38.914Z,286.90
2022-11-23T00:47:39.041Z,288.67
2022-11-23T00:48:39.138Z,288.92
2022-11-23T00:49:39.313Z,288.16
2022-11-23T00:50:39.397Z,284.91
2022-11-23T00:51:39.575Z,287.40
2022-11-23T00:52:39.654Z,285.90
2022-11-23T00:53:39.793Z,286.65
2022-11-23T00:54:39.997Z,285.16
2022-11-23T00:55:40.052Z,282.94
2022-11-23T00:56:40.224Z,281.01
2022-11-23T00:57:40.319Z,282.94
2022-11-23T00:58:40.463Z,281.73
2022-11-23T00:59:40.639Z,283.43
2022-11-23T01:00:40.742Z,282.70
2022-11-23T01:01:40.959Z,281.01
2022-11-23T01:02:40.985Z,279.81
2022-11-23T01:03:41.102Z,282.70
2022-11-23T01:04:41.251Z,283.19
2022-11-23T01:05:41.329Z,283.68
2022-11-23T01:06:41.475Z,283.68
2022-11-23T01:07:41.728Z,286.15
2022-11-23T01:08:41.755Z,284.66
2022-11-23T01:09:41.938Z,287.40
2022-11-23T01:10:42.019Z,289.18
2022-11-23T01:11:42.176Z,289.69
2022-11-23T01:12:42.318Z,292.27
2022-11-23T01:13:42.418Z,294.89
2022-11-23T01:14:42.586Z,294.10
2022-11-23T01:15:42.708Z,298.38
2022-11-23T01:16:42.818Z,300.84
2022-11-23T01:17:42.959Z,304.19
2022-11-23T01:18:43.094Z,303.91
2022-11-23T01:19:43.257Z,305.04
2022-11-23T01:20:43.357Z,309.35
2022-11-23T01:21:43.477Z,308.48
2022-11-23T01:22:43.616Z,311.41
2022-11-23T01:23:43.764Z,311.41
2022-11-23T01:24:43.953Z,311.70
2022-11-23T01:25:44.065Z,311.70
2022-11-23T01:26:44.164Z,311.41
2022-11-23T01:27:44.384Z,312.60
2022-11-23T01:28:44.425Z,313.49
2022-11-23T01:29:44.574Z,312.00
2022-11-23T01:30:44.724Z,314.09
2022-11-23T01:31:46.724Z,316.52
2022-11-23T01:32:44.915Z,314.39
2022-11-23T01:33:45.060Z,318.36
2022-11-23T01:34:45.173Z,319.29
2022-11-23T01:35:45.280Z,322.74
2022-11-23T01:36:45.436Z,322.11
2022-11-23T01:37:45.521Z,320.85
2022-11-23T01:38:45.664Z,321.48
2022-11-23T01:39:45.821Z,322.42
2022-11-23T01:40:45.934Z,324.34
2022-11-23T01:41:46.066Z,326.27
2022-11-23T01:42:46.204Z,328.23
2022-11-23T01:43:46.350Z,331.55
2022-11-23T01:44:46.466Z,328.89
2022-11-23T01:45:46.571Z,331.21
2022-11-23T01:46:46.700Z,336.30
2022-11-23T01:47:46.935Z,333.57
2022-11-23T01:48:46.958Z,339.43
2022-11-23T01:49:47.111Z,337.69
2022-11-23T01:50:47.297Z,340.85
2022-11-23T01:51:47.368Z,344.79
2022-11-23T01:52:47.518Z,346.61
2022-11-23T01:53:47.628Z,350.68
2022-11-23T01:54:47.806Z,349.56
2022-11-23T01:55:47.909Z,349.93
2022-11-23T01:56:48.021Z,352.57
2022-11-23T01:57:48.162Z,358.34
2022-11-23T01:58:48.305Z,361.50
2022-11-23T01:59:48.424Z,363.10
2022-11-23T02:00:48.608Z,363.10
2022-11-23T02:01:48.725Z,367.16
2022-11-23T02:02:48.839Z,366.75
2022-11-23T02:03:48.987Z,367.57
2022-11-23T02:04:49.121Z,369.64
2022-11-23T02:05:49.275Z,370.90
2022-11-23T02:06:49.384Z,375.14
2022-11-23T02:07:49.671Z,375.57
2022-11-23T02:08:49.605Z,381.70
2022-11-23T02:09:49.763Z,380.39
2022-11-23T02:10:49.874Z,381.92
2022-11-23T02:11:50.037Z,387.02
2022-11-23T02:12:50.123Z,385.67
2022-11-23T02:13:50.264Z,386.79
2022-11-23T02:14:50.415Z,391.56
2022-11-23T02:15:50.538Z,393.41
2022-11-23T02:16:50.623Z,390.19
2022-11-23T02:17:50.770Z,395.98
2022-11-23T02:18:50.882Z,391.56
2022-11-23T02:19:51.013Z,394.34
2022-11-23T02:20:51.171Z,393.88
2022-11-23T02:21:51.290Z,395.28
2022-11-23T02:22:51.401Z,393.18
2022-11-23T02:23:51.520Z,395.51
2022-11-23T02:24:51.651Z,395.28
2022-11-23T02:25:51.959Z,396.45
2022-11-23T02:26:51.931Z,399.06
2022-11-23T02:27:52.110Z,397.40
2022-11-23T02:28:52.185Z,400.26
2022-11-23T02:29:52.321Z,399.78
2022-11-23T02:30:52.489Z,402.43
2022-11-23T02:31:52.578Z,403.41
2022-11-23T02:32:52.713Z,403.65
2022-11-23T02:33:52.867Z,403.65
2022-11-23T02:34:52.988Z,408.35
2022-11-23T02:35:53.128Z,409.60
2022-11-23T02:36:53.226Z,410.86
2022-11-23T02:37:53.356Z,415.47
2022-11-23T02:38:53.487Z,417.55
2022-11-23T02:39:53.626Z,418.34
2022-11-23T02:40:53.783Z,418.60
2022-11-23T02:41:53.879Z,419.65
2022-11-23T02:42:54.035Z,421.25
2022-11-23T02:43:54.149Z,423.39
2022-11-23T02:44:54.274Z,423.39
2022-11-23T02:45:55.494Z,433.57
2022-11-23T02:46:54.640Z,434.98
2022-11-23T02:47:54.702Z,433.57
2022-11-23T02:48:54.794Z,434.14
2022-11-23T02:49:54.928Z,435.27
2022-11-23T02:50:55.122Z,433.29
2022-11-23T02:51:55.283Z,436.12
2022-11-23T02:52:55.352Z,436.69
2022-11-23T02:53:55.452Z,434.14
2022-11-23T02:54:55.644Z,438.99
2022-11-23T02:55:55.742Z,442.20
2022-11-23T02:56:55.923Z,444.26
2022-11-23T02:57:56.022Z,442.49
2022-11-23T02:58:56.193Z,451.17
2022-11-23T02:59:56.259Z,452.40
2022-11-23T03:00:56.486Z,455.18
2022-11-23T03:01:56.593Z,459.25
2022-11-23T03:02:56.711Z,457.99
2022-11-23T03:03:56.854Z,458.62
2022-11-23T03:04:56.952Z,457.05
2022-11-23T03:05:57.112Z,459.57
2022-11-23T03:06:57.256Z,453.94
2022-11-23T03:07:57.450Z,460.52
2022-11-23T03:08:57.494Z,460.20
2022-11-23T03:09:57.630Z,461.16
2022-11-23T03:10:57.776Z,455.80
2022-11-23T03:11:57.951Z,459.88
2022-11-23T03:12:58.000Z,457.99
2022-11-23T03:13:58.153Z,459.25
2022-11-23T03:14:58.270Z,455.18
2022-11-23T03:15:58.351Z,458.93
2022-11-23T03:16:58.500Z,451.17
2022-11-23T03:17:58.640Z,455.80
2022-11-23T03:18:58.759Z,454.55
2022-11-23T03:19:58.877Z,455.80
2022-11-23T03:20:58.983Z,455.18
2022-11-23T03:21:59.197Z,454.55
2022-11-23T03:22:59.216Z,454.55
2022-11-23T03:23:59.356Z,454.55
2022-11-23T03:24:59.538Z,457.05
2022-11-23T03:25:59.615Z,461.16
2022-11-23T03:26:59.795Z,462.44
2022-11-23T03:27:59.943Z,461.80
2022-11-23T03:29:00.028Z,460.20
2022-11-23T03:30:00.215Z,461.16
2022-11-23T03:31:00.283Z,463.40
2022-11-23T03:32:00.473Z,459.88
2022-11-23T03:33:00.553Z,457.99
2022-11-23T03:34:00.715Z,459.25
2022-11-23T03:35:00.828Z,460.20
2022-11-23T03:36:00.952Z,459.25
2022-11-23T03:37:01.113Z,459.57
2022-11-23T03:38:01.303Z,460.20
2022-11-23T03:39:01.326Z,455.80
2022-11-23T03:40:01.477Z,460.52
2022-11-23T03:41:01.583Z,458.30
2022-11-23T03:42:01.761Z,460.52
2022-11-23T03:43:01.844Z,461.80
2022-11-23T03:44:01.984Z,461.48
2022-11-23T03:45:02.132Z,462.11
2022-11-23T03:46:02.266Z,458.30
2022-11-23T03:47:02.422Z,461.48
2022-11-23T03:48:02.564Z,459.57
2022-11-23T03:49:02.659Z,461.80
2022-11-23T03:50:05.321Z,456.42
2022-11-23T03:51:02.920Z,456.42
2022-11-23T03:52:03.212Z,454.86
2022-11-23T03:53:03.190Z,454.25
2022-11-23T03:54:03.338Z,449.05
2022-11-23T03:55:03.489Z,447.24
2022-11-23T03:56:03.578Z,446.64
2022-11-23T03:57:03.739Z,447.24
2022-11-23T03:58:03.839Z,444.26
2022-11-23T03:59:03.970Z,442.20
2022-11-23T04:00:04.100Z,438.71
2022-11-23T04:01:04.291Z,437.27
2022-11-23T04:02:04.388Z,435.55
2022-11-23T04:03:04.481Z,433.29
2022-11-23T04:04:04.623Z,432.73
2022-11-23T04:05:04.769Z,430.21
2022-11-23T04:06:04.880Z,428.01
2022-11-23T04:07:05.164Z,425.82
2022-11-23T04:08:05.207Z,423.65
2022-11-23T04:09:05.305Z,419.39
2022-11-23T04:10:05.453Z,414.95
2022-11-23T04:11:05.565Z,413.67
2022-11-23T04:12:05.741Z,411.37
2022-11-23T04:13:05.796Z,409.85
2022-11-23T04:14:05.923Z,408.35
2022-11-23T04:15:06.074Z,406.61
2022-11-23T04:16:06.197Z,404.39
2022-11-23T04:17:06.359Z,400.02
2022-11-23T04:18:06.454Z,401.95
2022-11-23T04:19:06.553Z,398.58
2022-11-23T04:20:06.733Z,398.82
2022-11-23T04:21:06.832Z,394.81
2022-11-23T04:22:06.985Z,395.75
2022-11-23T04:23:11.734Z,393.88
2022-11-23T04:24:08.209Z,396.22
2022-11-23T04:25:07.402Z,392.25
2022-11-23T04:26:07.469Z,390.65
2022-11-23T04:27:07.668Z,390.88
2022-11-23T04:28:07.728Z,387.92
2022-11-23T04:29:07.869Z,387.02
2022-11-23T04:30:08.012Z,383.02
2022-11-23T04:31:08.149Z,384.34
2022-11-23T04:32:08.352Z,383.46
2022-11-23T04:33:08.438Z,389.05
2022-11-23T04:34:08.644Z,389.28
2022-11-23T04:35:08.699Z,387.47
2022-11-23T04:36:08.851Z,387.24
2022-11-23T04:37:13.024Z,391.10
2022-11-23T04:38:09.175Z,390.65
2022-11-23T04:39:09.256Z,391.10
2022-11-23T04:40:09.400Z,387.47
2022-11-23T04:41:09.527Z,389.96
2022-11-23T04:42:09.679Z,388.37
2022-11-23T04:43:09.833Z,386.57
2022-11-23T04:44:09.927Z,384.79
2022-11-23T04:45:10.048Z,385.01
2022-11-23T04:46:10.192Z,390.19
2022-11-23T04:47:10.367Z,382.58
2022-11-23T04:48:10.528Z,384.12
2022-11-23T04:49:10.615Z,384.56
2022-11-23T04:50:10.705Z,380.61
2022-11-23T04:51:10.873Z,382.36
2022-11-23T04:52:11.038Z,386.57
2022-11-23T04:53:11.123Z,383.68
2022-11-23T04:54:11.266Z,387.69
2022-11-23T04:55:11.397Z,389.73
2022-11-23T04:56:11.524Z,385.67
2022-11-23T04:57:11.690Z,387.24
2022-11-23T04:58:11.838Z,389.96
2022-11-23T04:59:11.902Z,393.18
2022-11-23T05:00:12.043Z,393.64
2022-11-23T05:01:12.245Z,393.41
2022-11-23T05:02:12.361Z,392.02
2022-11-23T05:03:12.441Z,396.69
2022-11-23T05:04:17.592Z,395.04
2022-11-23T05:05:13.693Z,396.69
2022-11-23T05:06:12.865Z,396.92
2022-11-23T05:07:13.042Z,400.74
2022-11-23T05:08:13.160Z,399.54
2022-11-23T05:09:13.232Z,401.22
2022-11-23T05:10:13.370Z,400.98
2022-11-23T05:11:13.509Z,402.43
2022-11-23T05:12:13.730Z,404.63
2022-11-23T05:13:13.830Z,406.36
2022-11-23T05:14:13.939Z,407.60
2022-11-23T05:15:14.051Z,411.12
2022-11-23T05:16:14.195Z,415.21
2022-11-23T05:17:14.317Z,417.29
2022-11-23T05:18:14.426Z,420.18
2022-11-23T05:19:14.701Z,419.13
2022-11-23T05:20:14.716Z,425.28
2022-11-23T05:21:14.806Z,430.49
2022-11-23T05:22:15.010Z,427.46
2022-11-23T05:23:15.108Z,431.89
2022-11-23T05:24:15.295Z,436.41
2022-11-23T05:25:15.401Z,434.98
2022-11-23T05:26:15.515Z,442.78
2022-11-23T05:27:15.718Z,442.49
2022-11-23T05:28:38.631Z,448.44
2022-11-23T05:29:16.886Z,452.09
2022-11-23T05:30:16.026Z,453.94
2022-11-23T05:31:16.183Z,451.48
2022-11-23T05:32:16.323Z,447.84
2022-11-23T05:33:16.425Z,449.05
2022-11-23T05:34:16.565Z,448.74
2022-11-23T05:35:16.707Z,452.09
2022-11-23T05:36:16.871Z,455.49
2022-11-23T05:37:16.982Z,451.17
2022-11-23T05:38:17.074Z,452.70
2022-11-23T05:39:17.211Z,450.87
2022-11-23T05:40:17.379Z,450.26
2022-11-23T05:41:17.484Z,450.26
2022-11-23T05:42:17.629Z,448.74
2022-11-23T05:43:17.771Z,447.84
2022-11-23T05:44:17.929Z,445.74
2022-11-23T05:45:18.033Z,444.26
2022-11-23T05:46:18.160Z,446.64
2022-11-23T05:47:18.329Z,448.14
2022-11-23T05:48:18.513Z,449.95
2022-11-23T05:49:18.558Z,454.55
2022-11-23T05:50:18.681Z,453.01
2022-11-23T05:51:18.780Z,450.56
2022-11-23T05:52:18.969Z,455.80
2022-11-23T05:53:19.048Z,459.25
2022-11-23T05:54:19.177Z,453.32
2022-11-23T05:55:19.348Z,451.48
2022-11-23T05:56:19.473Z,455.49
2022-11-23T05:57:19.597Z,452.40
2022-11-23T05:58:19.712Z,457.36
2022-11-23T05:59:19.832Z,457.99
2022-11-23T06:00:19.968Z,464.69
2022-11-23T06:01:20.113Z,470.60
2022-11-23T06:02:20.298Z,468.94
2022-11-23T06:03:20.388Z,470.93
2022-11-23T06:04:20.600Z,472.60
2022-11-23T06:05:20.665Z,469.27
2022-11-23T06:06:20.756Z,468.61
2022-11-23T06:07:20.978Z,472.26
2022-11-23T06:08:21.115Z,473.94
2022-11-23T06:09:21.184Z,479.05
2022-11-23T06:10:21.285Z,481.82
2022-11-23T06:11:21.428Z,489.96
2022-11-23T06:12:21.632Z,491.40
2022-11-23T06:13:21.660Z,491.40
2022-11-23T06:14:21.794Z,497.27
2022-11-23T06:15:21.934Z,502.89
2022-11-23T06:16:22.080Z,503.27
2022-11-23T06:17:22.282Z,506.71
2022-11-23T06:18:22.334Z,506.33
2022-11-23T06:19:22.443Z,508.26
2022-11-23T06:20:22.552Z,507.10
2022-11-23T06:21:22.698Z,506.71
2022-11-23T06:22:22.897Z,512.95
2022-11-23T06:23:22.960Z,513.74
2022-11-23T06:24:23.110Z,521.78
2022-11-23T06:25:23.239Z,527.97
2022-11-23T06:26:23.379Z,530.49
2022-11-23T06:27:23.573Z,535.61
2022-11-23T06:28:23.738Z,542.14
2022-11-23T06:29:23.785Z,553.85
2022-11-23T06:30:23.908Z,558.02
2022-11-23T06:31:24.036Z,569.94
2022-11-23T06:32:24.177Z,578.35
2022-11-23T06:33:24.338Z,584.43
2022-11-23T06:34:24.439Z,591.16
2022-11-23T06:35:24.583Z,594.85
2022-11-23T06:36:24.712Z,603.47
2022-11-23T06:37:24.846Z,614.59
2022-11-23T06:38:24.997Z,621.47
2022-11-23T06:39:25.145Z,621.47
2022-11-23T06:40:25.318Z,630.87
2022-11-23T06:41:30.948Z,632.07
2022-11-23T06:42:41.800Z,632.07
2022-11-23T06:43:26.696Z,629.68
2022-11-23T06:44:25.838Z,628.49
2022-11-23T06:45:25.972Z,627.31
2022-11-23T06:46:26.073Z,626.13
2022-11-23T06:47:26.774Z,624.96
2022-11-23T06:48:26.344Z,626.72
2022-11-23T06:49:26.443Z,622.63
2022-11-23T06:50:26.526Z,623.79
2022-11-23T06:51:26.663Z,627.90
2022-11-23T06:52:26.849Z,624.38
2022-11-23T06:53:26.944Z,626.72
2022-11-23T06:54:27.547Z,623.79
2022-11-23T06:55:27.192Z,626.13
2022-11-23T06:56:27.294Z,627.90
2022-11-23T06:57:27.501Z,619.16
2022-11-23T06:58:27.553Z,618.58
2022-11-23T06:59:27.751Z,621.47
2022-11-23T07:00:27.802Z,610.65
2022-11-23T07:01:28.011Z,613.46
2022-11-23T07:02:28.075Z,612.34
2022-11-23T07:03:28.231Z,608.98
2022-11-23T07:04:28.299Z,605.11
2022-11-23T07:05:28.439Z,609.54
2022-11-23T07:06:28.586Z,610.09
2022-11-23T07:07:28.835Z,610.65
2022-11-23T07:08:28.854Z,610.09
2022-11-23T07:09:29.225Z,610.65
2022-11-23T07:10:29.252Z,608.98
2022-11-23T07:11:29.288Z,612.34
2022-11-23T07:12:29.509Z,612.34
2022-11-23T07:13:29.486Z,610.09
2022-11-23T07:14:29.639Z,612.90
2022-11-23T07:15:29.739Z,613.46
2022-11-23T07:16:29.868Z,613.46
2022-11-23T07:17:30.053Z,612.90
2022-11-23T07:18:30.227Z,611.21
2022-11-23T07:19:30.802Z,607.87
2022-11-23T07:20:30.397Z,603.47
2022-11-23T07:21:30.528Z,596.98
2022-11-23T07:22:30.697Z,596.98
2022-11-23T07:23:30.901Z,589.60
2022-11-23T07:24:37.968Z,590.12
2022-11-23T07:25:32.048Z,585.45
2022-11-23T07:26:31.195Z,584.43
2022-11-23T07:27:31.315Z,587.52
2022-11-23T07:28:31.432Z,584.43
2022-11-23T07:29:31.837Z,578.85
2022-11-23T07:30:31.646Z,576.35
2022-11-23T07:31:31.744Z,571.41
2022-11-23T07:32:31.927Z,572.88
2022-11-23T07:33:32.014Z,568.48
2022-11-23T07:34:32.148Z,568.00
2022-11-23T07:35:32.282Z,560.84
2022-11-23T07:36:32.422Z,560.36
2022-11-23T07:37:36.073Z,560.84
2022-11-23T07:38:32.695Z,567.03
2022-11-23T07:39:55.559Z,575.35
2022-11-23T07:40:33.953Z,573.87
2022-11-23T07:41:33.078Z,584.43
2022-11-23T07:42:38.159Z,589.08
2022-11-23T07:43:34.341Z,593.27
2022-11-23T07:44:33.462Z,602.92
2022-11-23T07:45:33.591Z,604.02
2022-11-23T07:46:33.732Z,607.32
2022-11-23T07:47:33.882Z,611.21
2022-11-23T07:48:36.499Z,612.90
2022-11-23T07:49:34.252Z,608.98
2022-11-23T07:50:34.204Z,618.01
2022-11-23T07:51:34.339Z,620.89
2022-11-23T07:52:34.517Z,626.13
2022-11-23T07:53:34.598Z,626.72
2022-11-23T07:54:34.740Z,625.55
2022-11-23T07:55:34.876Z,628.49
2022-11-23T07:56:35.028Z,630.87
2022-11-23T07:57:35.175Z,636.90
2022-11-23T07:58:35.277Z,636.90
2022-11-23T07:59:35.525Z,636.90
2022-11-23T08:00:35.549Z,641.80
2022-11-23T08:01:35.677Z,651.20
2022-11-23T08:02:35.932Z,656.98
2022-11-23T08:03:36.006Z,653.76
2022-11-23T08:04:36.125Z,655.69
2022-11-23T08:05:36.233Z,664.84
2022-11-23T08:06:36.382Z,663.52
2022-11-23T08:07:36.666Z,665.50
2022-11-23T08:08:36.648Z,673.57
2022-11-23T08:09:36.785Z,686.75
2022-11-23T08:10:43.462Z,688.88
2022-11-23T08:11:38.037Z,706.39
2022-11-23T08:12:37.284Z,710.15
2022-11-23T08:13:37.342Z,713.95
2022-11-23T08:14:37.451Z,716.25
2022-11-23T08:15:37.591Z,728.78
2022-11-23T08:16:37.712Z,729.58
2022-11-23T08:17:37.872Z,733.59
2022-11-23T08:18:37.982Z,722.46
2022-11-23T08:19:38.142Z,723.25
2022-11-23T08:20:38.254Z,729.58
2022-11-23T08:21:38.367Z,729.58
2022-11-23T08:22:38.543Z,733.59
2022-11-23T08:23:38.631Z,731.98
2022-11-23T08:24:38.730Z,729.58
2022-11-23T08:25:38.871Z,733.59
2022-11-23T08:26:39.018Z,730.38
2022-11-23T08:27:39.171Z,735.21
2022-11-23T08:28:39.267Z,725.61
2022-11-23T08:29:39.434Z,737.65
2022-11-23T08:30:39.539Z,736.83
2022-11-23T08:31:39.668Z,744.23
2022-11-23T08:32:39.898Z,750.00
2022-11-23T08:33:39.935Z,751.27
2022-11-23T08:34:40.068Z,752.96
2022-11-23T08:35:40.201Z,756.37
2022-11-23T08:36:40.348Z,765.92
2022-11-23T08:37:40.653Z,776.61
2022-11-23T08:38:40.660Z,784.83
2022-11-23T08:39:40.777Z,793.70
2022-11-23T08:40:40.899Z,800.84
2022-11-23T08:41:41.024Z,802.28
2022-11-23T08:42:41.174Z,806.16
2022-11-23T08:43:41.277Z,803.73
2022-11-23T08:44:41.391Z,810.07
2022-11-23T08:45:41.524Z,812.54
2022-11-23T08:46:41.674Z,822.55
2022-11-23T08:47:41.832Z,826.62
2022-11-23T08:48:41.943Z,824.07
2022-11-23T08:49:42.088Z,824.07
2022-11-23T08:50:42.222Z,827.65
2022-11-23T08:51:47.034Z,828.68
2022-11-23T08:52:43.529Z,828.16
2022-11-23T08:53:42.683Z,820.53
2022-11-23T08:54:42.779Z,819.02
2022-11-23T08:55:42.911Z,825.60
2022-11-23T08:56:43.051Z,827.14
2022-11-23T08:57:43.212Z,820.53
2022-11-23T08:58:43.333Z,829.19
2022-11-23T08:59:43.509Z,814.52
2022-11-23T09:00:43.570Z,816.51
2022-11-23T09:01:43.778Z,821.03
2022-11-23T09:02:43.902Z,821.54
2022-11-23T09:03:43.970Z,824.58
2022-11-23T09:04:44.116Z,827.14
2022-11-23T09:05:44.239Z,828.16
2022-11-23T09:06:44.378Z,821.54
2022-11-23T09:07:44.656Z,828.16
2022-11-23T09:08:44.652Z,830.74
2022-11-23T09:09:44.807Z,819.52
2022-11-23T09:10:44.948Z,815.52
2022-11-23T09:11:45.047Z,817.01
2022-11-23T09:12:45.251Z,813.53
2022-11-23T09:13:45.312Z,819.52
2022-11-23T09:14:45.438Z,813.53
2022-11-23T09:15:45.618Z,821.03
2022-11-23T09:16:45.718Z,826.62
2022-11-23T09:17:45.851Z,833.85
2022-11-23T09:18:45.982Z,833.85
2022-11-23T09:19:46.105Z,841.74
2022-11-23T09:20:46.200Z,839.09
2022-11-23T09:21:46.345Z,835.94
2022-11-23T09:22:46.447Z,835.94
2022-11-23T09:23:46.584Z,837.52
2022-11-23T09:24:46.815Z,838.04
2022-11-23T09:25:46.845Z,831.78
2022-11-23T09:26:46.978Z,831.78
2022-11-23T09:27:47.064Z,838.04
2022-11-23T09:28:47.194Z,846.54
2022-11-23T09:29:47.338Z,853.03
2022-11-23T09:30:47.473Z,860.73
2022-11-23T09:31:47.646Z,870.84
2022-11-23T09:32:47.731Z,881.77
2022-11-23T09:33:47.862Z,880.61
2022-11-23T09:34:48.016Z,887.63
2022-11-23T09:35:48.093Z,896.57
2022-11-23T09:36:48.265Z,902.03
2022-11-23T09:37:48.342Z,900.20
2022-11-23T09:38:57.249Z,904.47
2022-11-23T09:39:49.607Z,918.16
2022-11-23T09:40:51.380Z,929.02
2022-11-23T09:41:48.906Z,938.16
2022-11-23T09:42:48.970Z,955.62
2022-11-23T09:43:49.110Z,974.45
2022-11-23T09:44:49.264Z,980.90
2022-11-23T09:45:49.382Z,983.06
2022-11-23T09:46:49.545Z,986.70
2022-11-23T09:47:49.637Z,988.16
2022-11-23T09:48:49.767Z,995.53
2022-11-23T09:49:49.909Z,1006.79
2022-11-23T09:50:49.997Z,1016.76
2022-11-23T09:51:50.326Z,1024.56
2022-11-23T09:52:50.272Z,1030.09
2022-11-23T09:53:50.405Z,1047.06
2022-11-23T09:54:50.537Z,1059.52
2022-11-23T09:55:50.701Z,1055.33
2022-11-23T09:56:50.864Z,1061.21
2022-11-23T09:57:50.945Z,1060.36
2022-11-23T09:58:51.115Z,1071.43
2022-11-23T09:59:51.273Z,1084.48
2022-11-23T10:00:51.324Z,1088.91
2022-11-23T10:01:51.528Z,1096.06
2022-11-23T10:02:51.587Z,1104.22
2022-11-23T10:03:51.674Z,1103.31
2022-11-23T10:04:51.823Z,1113.43
2022-11-23T10:05:51.965Z,1107.88
2022-11-23T10:06:52.123Z,1112.50
2022-11-23T10:07:52.250Z,1119.03
2022-11-23T10:08:52.323Z,1117.15
2022-11-23T10:09:52.463Z,1112.50
2022-11-23T10:10:52.615Z,1119.03
2022-11-23T10:11:52.752Z,1107.88
2022-11-23T10:12:52.952Z,1103.31
2022-11-23T10:13:52.989Z,1107.88
2022-11-23T10:14:53.120Z,1111.57
2022-11-23T10:15:53.278Z,1110.65
2022-11-23T10:16:53.381Z,1107.88
2022-11-23T10:17:53.504Z,1110.65
2022-11-23T10:18:53.627Z,1112.50
2022-11-23T10:19:53.780Z,1124.68
2022-11-23T10:20:53.871Z,1122.79
2022-11-23T10:21:54.058Z,1119.97
2022-11-23T10:22:54.189Z,1112.50
2022-11-23T10:23:54.299Z,1109.72
2022-11-23T10:24:54.426Z,1112.50
2022-11-23T10:25:54.550Z,1113.43
2022-11-23T10:26:54.699Z,1114.36
2022-11-23T10:27:54.877Z,1117.15
2022-11-23T10:28:55.006Z,1117.15
2022-11-23T10:29:55.097Z,1115.29
2022-11-23T10:30:55.198Z,1120.91
2022-11-23T10:31:57.232Z,1126.58
2022-11-23T10:32:55.508Z,1138.11
2022-11-23T10:33:55.597Z,1145.92
2022-11-23T10:34:55.758Z,1145.92
2022-11-23T10:35:55.866Z,1146.91
2022-11-23T10:36:55.980Z,1157.85
2022-11-23T10:37:56.137Z,1167.98
2022-11-23T10:38:56.327Z,1164.92
2022-11-23T10:39:56.374Z,1165.94
2022-11-23T10:40:56.487Z,1165.94
2022-11-23T10:41:56.606Z,1160.87
2022-11-23T10:42:56.734Z,1166.96
2022-11-23T10:43:56.928Z,1170.03
2022-11-23T10:44:56.934Z,1175.18
2022-11-23T10:45:59.790Z,1163.91
2022-11-23T10:46:57.200Z,1170.03
2022-11-23T10:47:57.313Z,1175.18
2022-11-23T10:48:57.437Z,1178.29
2022-11-23T10:49:57.523Z,1184.56
2022-11-23T10:50:57.672Z,1179.33
2022-11-23T10:51:57.777Z,1182.46
2022-11-23T10:52:57.921Z,1188.78
2022-11-23T10:54:02.094Z,1194.10
2022-11-23T10:54:59.152Z,1183.51
2022-11-23T10:55:58.331Z,1189.84
2022-11-23T10:56:58.421Z,1188.78
2022-11-23T10:57:58.560Z,1181.42
2022-11-23T10:58:58.658Z,1184.56
2022-11-23T10:59:58.836Z,1190.90
2022-11-23T11:00:58.889Z,1195.17
2022-11-23T11:01:59.024Z,1191.96
2022-11-23T11:02:59.264Z,1176.21
2022-11-23T11:03:59.264Z,1171.05
2022-11-23T11:04:59.360Z,1169.00
2022-11-23T11:06:14.960Z,1175.18
2022-11-23T11:07:00.638Z,1153.85
2022-11-23T11:07:59.878Z,1162.89
2022-11-23T11:09:03.191Z,1177.25
2022-11-23T11:09:59.997Z,1178.29
2022-11-23T11:11:00.112Z,1182.46
2022-11-23T11:12:00.206Z,1176.21
2022-11-23T11:13:00.422Z,1171.05
2022-11-23T11:14:00.468Z,1154.84
2022-11-23T11:15:10.392Z,1143.96
2022-11-23T11:16:01.745Z,1130.40
2022-11-23T11:17:00.836Z,1131.35
2022-11-23T11:18:01.045Z,1119.03
2022-11-23T11:19:01.042Z,1107.88
2022-11-23T11:20:01.235Z,1112.50
2022-11-23T11:21:01.274Z,1113.43
2022-11-23T11:22:01.374Z,1118.09
2022-11-23T11:23:01.565Z,1109.72
2022-11-23T11:24:01.666Z,1101.48
2022-11-23T11:25:01.815Z,1111.57
2022-11-23T11:26:01.944Z,1106.05
2022-11-23T11:27:02.077Z,1088.91
2022-11-23T11:28:02.214Z,1099.67
2022-11-23T11:29:02.337Z,1112.50
2022-11-23T11:30:02.435Z,1119.97
2022-11-23T11:31:02.535Z,1123.74
2022-11-23T11:32:02.646Z,1127.53
2022-11-23T11:33:04.858Z,1110.65
2022-11-23T11:34:02.873Z,1113.43
2022-11-23T11:35:02.981Z,1111.57
2022-11-23T11:36:03.082Z,1097.86
2022-11-23T11:37:03.251Z,1101.48
2022-11-23T11:38:03.402Z,1102.39
2022-11-23T11:39:19.766Z,1088.02
2022-11-23T11:40:04.680Z,1092.47
2022-11-23T11:41:03.723Z,1089.80
2022-11-23T11:42:03.821Z,1095.16
2022-11-23T11:43:03.979Z,1080.10
2022-11-23T11:44:04.050Z,1089.80
2022-11-23T11:45:04.176Z,1107.88
2022-11-23T11:46:27.992Z,1117.15
2022-11-23T11:47:05.379Z,1126.58
2022-11-23T11:48:04.596Z,1136.17
2022-11-23T11:49:04.643Z,1135.20
2022-11-23T11:50:04.785Z,1148.88
2022-11-23T11:51:04.891Z,1163.91
2022-11-23T11:52:05.006Z,1158.85
2022-11-23T11:53:05.169Z,1169.00
2022-11-23T11:54:05.248Z,1174.14
2022-11-23T11:55:05.350Z,1176.21
2022-11-23T11:56:05.509Z,1186.67
2022-11-23T11:57:05.617Z,1190.90
2022-11-23T11:58:05.756Z,1190.90
2022-11-23T11:59:05.848Z,1197.31
2022-11-23T12:00:06.006Z,1195.17
2022-11-23T12:01:06.055Z,1194.10
2022-11-23T12:02:06.153Z,1199.46
2022-11-23T12:03:06.387Z,1209.24
2022-11-23T12:04:06.439Z,1199.46
2022-11-23T12:05:06.545Z,1219.18
2022-11-23T12:06:06.646Z,1215.85
2022-11-23T12:07:06.829Z,1208.14
2022-11-23T12:08:06.957Z,1240.71
2022-11-23T12:09:07.004Z,1225.90
2022-11-23T12:10:07.114Z,1229.28
2022-11-23T12:11:07.226Z,1205.96
2022-11-23T12:12:07.319Z,1201.62
2022-11-23T12:13:07.452Z,1215.85
2022-11-23T12:14:07.554Z,1201.62
2022-11-23T12:15:26.592Z,1209.24
2022-11-23T12:16:08.779Z,1225.90
2022-11-23T12:17:31.859Z,1223.65
2022-11-23T12:18:11.650Z,1234.97
2022-11-23T12:19:08.182Z,1239.55
2022-11-23T12:20:08.400Z,1244.18
2022-11-23T12:21:08.434Z,1255.88
2022-11-23T12:22:08.534Z,1260.62
2022-11-23T12:23:08.640Z,1264.20
2022-11-23T12:24:08.739Z,1273.85
2022-11-23T12:25:08.844Z,1260.62